Time;durP1;ratioP1;P1;durP2;ratioP2;P2;SDS_P1;SDS_P2;PMS_P1;PMS_P2;Temp;Humidity;BMP_temperature;BMP_pressure;BME280_temperature;BME280_humidity;BME280_pressure;Samples;Min_cycle;Max_cycle;Signal;HPM_P1;HPM_P2
2021/01/09 00:00:39;;;;;;;;;;;9.70;50.30;;;;;;5051221;28;19960;-79
2021/01/09 00:03:05;;;;;;;;;;;9.50;51.90;;;;;;5050409;28;19940;-76
2021/01/09 00:05:35;;;;;;;;;;;9.50;51.10;;;;;;5048462;28;20016;-75
2021/01/09 00:08:01;;;;;;;;;;;9.50;52.00;;;;;;5032133;28;19932;-84
2021/01/09 00:10:28;;;;;;;;;;;9.60;52.30;;;;;;5030971;28;20386;-83
2021/01/09 00:12:56;;;;;;;;;;;9.50;51.80;;;;;;5031072;28;19948;-84
2021/01/09 00:15:22;;;;;;;;;;;9.60;52.10;;;;;;5031054;28;19932;-84
2021/01/09 00:17:48;;;;;;;;;;;9.80;51.90;;;;;;5048494;28;19925;-83
2021/01/09 00:20:16;;;;;;;;;;;10.00;51.60;;;;;;5050452;28;19936;-84
2021/01/09 00:22:42;;;;;;;;;;;10.20;50.80;;;;;;5050778;28;20055;-85
2021/01/09 00:25:10;;;;;;;;;;;10.40;49.60;;;;;;5049529;28;19925;-82
2021/01/09 00:27:36;;;;;;;;;;;10.40;49.90;;;;;;5050952;28;20011;-76
2021/01/09 00:30:03;;;;;;;;;;;10.60;49.80;;;;;;5053820;28;19932;-79
2021/01/09 00:32:29;;;;;;;;;;;10.50;49.40;;;;;;5053394;28;19940;-84
2021/01/09 00:34:56;;;;;;;;;;;10.50;48.90;;;;;;5054168;28;19925;-85
2021/01/09 00:37:26;;;;;;;;;;;10.30;49.30;;;;;;5053824;28;19931;-83
2021/01/09 00:39:52;;;;;;;;;;;10.30;50.80;;;;;;5054192;28;19932;-85
2021/01/09 00:42:19;;;;;;;;;;;10.60;50.10;;;;;;5054080;28;20411;-81
2021/01/09 00:44:45;;;;;;;;;;;10.80;49.10;;;;;;5053936;28;19924;-85
2021/01/09 00:47:11;;;;;;;;;;;11.00;49.00;;;;;;5053839;28;19925;-82
2021/01/09 00:49:38;;;;;;;;;;;11.20;48.40;;;;;;5053829;28;19936;-83
2021/01/09 00:52:05;;;;;;;;;;;11.30;47.40;;;;;;5053512;28;19951;-84
2021/01/09 00:54:32;;;;;;;;;;;11.10;47.00;;;;;;5052131;28;19936;-76
2021/01/09 00:56:59;;;;;;;;;;;10.90;48.60;;;;;;5053139;28;20411;-78
2021/01/09 00:59:26;;;;;;;;;;;10.90;48.50;;;;;;5053331;28;19925;-79
2021/01/09 01:01:52;;;;;;;;;;;11.10;48.40;;;;;;5053198;28;19925;-75
2021/01/09 01:04:19;;;;;;;;;;;11.30;47.80;;;;;;5052842;28;19925;-77
2021/01/09 01:06:46;;;;;;;;;;;11.50;47.40;;;;;;5053238;28;19971;-77
2021/01/09 01:09:12;;;;;;;;;;;11.50;46.50;;;;;;5053880;28;19951;-84
2021/01/09 01:11:39;;;;;;;;;;;11.30;45.90;;;;;;5053487;28;19925;-80
2021/01/09 01:14:06;;;;;;;;;;;11.30;47.60;;;;;;5053427;28;19929;-82
2021/01/09 01:16:32;;;;;;;;;;;11.40;47.30;;;;;;5053286;28;19932;-84
2021/01/09 01:18:59;;;;;;;;;;;11.50;46.80;;;;;;5053266;28;19951;-80
2021/01/09 01:21:25;;;;;;;;;;;11.60;46.50;;;;;;5052942;28;19932;-79
2021/01/09 01:23:51;;;;;;;;;;;11.70;46.50;;;;;;5053111;28;19925;-77
2021/01/09 01:26:17;;;;;;;;;;;11.70;46.30;;;;;;5052509;28;19928;-78
2021/01/09 01:28:44;;;;;;;;;;;11.80;46.30;;;;;;5052231;28;19925;-76
2021/01/09 01:31:10;;;;;;;;;;;11.70;46.40;;;;;;5052397;28;19925;-83
2021/01/09 01:33:39;;;;;;;;;;;11.60;46.10;;;;;;5052595;28;19929;-78
2021/01/09 01:36:07;;;;;;;;;;;11.60;46.60;;;;;;5052690;28;19928;-76
2021/01/09 01:38:34;;;;;;;;;;;11.70;45.90;;;;;;5052495;28;19941;-76
2021/01/09 01:41:02;;;;;;;;;;;11.70;46.50;;;;;;5052853;28;19952;-82
2021/01/09 01:43:29;;;;;;;;;;;11.80;45.80;;;;;;5053100;28;19932;-84
2021/01/09 01:45:57;;;;;;;;;;;11.80;45.90;;;;;;5052553;28;19925;-83
2021/01/09 01:48:24;;;;;;;;;;;11.90;46.00;;;;;;5052755;28;19976;-78
2021/01/09 01:50:50;;;;;;;;;;;11.90;45.80;;;;;;5052272;28;19924;-76
2021/01/09 01:53:17;;;;;;;;;;;11.80;45.70;;;;;;5052044;28;20178;-77
2021/01/09 01:55:44;;;;;;;;;;;11.90;45.70;;;;;;5052040;28;19947;-76
2021/01/09 01:58:10;;;;;;;;;;;11.90;45.70;;;;;;5051940;28;19925;-79
2021/01/09 02:00:37;;;;;;;;;;;11.90;45.50;;;;;;5051851;28;19925;-81
2021/01/09 02:03:04;;;;;;;;;;;11.80;45.70;;;;;;5051982;28;20300;-78
2021/01/09 02:05:34;;;;;;;;;;;11.90;45.80;;;;;;5051897;28;19960;-76
2021/01/09 02:08:02;;;;;;;;;;;11.40;45.30;;;;;;5038527;28;19967;-75
2021/01/09 02:10:29;;;;;;;;;;;11.80;45.70;;;;;;5031910;28;19932;-76
2021/01/09 02:13:07;;;;;;;;;;;11.80;46.40;;;;;;5031695;28;19925;-79
2021/01/09 02:15:34;;;;;;;;;;;11.80;45.50;;;;;;5032507;28;20528;-75
2021/01/09 02:18:01;;;;;;;;;;;11.70;45.00;;;;;;5032138;28;19929;-76
2021/01/09 02:20:28;;;;;;;;;;;11.70;45.70;;;;;;5032036;28;19984;-76
2021/01/09 02:22:55;;;;;;;;;;;11.80;45.80;;;;;;5048278;28;20011;-75
2021/01/09 02:25:21;;;;;;;;;;;11.80;45.60;;;;;;5055718;28;20061;-78
2021/01/09 02:27:48;;;;;;;;;;;11.80;45.40;;;;;;5054946;28;19968;-75
2021/01/09 02:30:15;;;;;;;;;;;11.90;45.50;;;;;;5052795;28;20305;-75
2021/01/09 02:33:00;;;;;;;;;;;11.90;45.40;;;;;;5051846;28;19925;-75
2021/01/09 02:35:27;;;;;;;;;;;11.90;45.20;;;;;;5052395;28;20117;-76
2021/01/09 02:37:54;;;;;;;;;;;11.90;45.20;;;;;;5054791;28;19931;-78
2021/01/09 02:40:20;;;;;;;;;;;11.90;45.30;;;;;;5054211;28;19928;-74
2021/01/09 02:42:47;;;;;;;;;;;11.90;45.10;;;;;;5055025;28;20409;-75
2021/01/09 02:45:13;;;;;;;;;;;11.90;45.10;;;;;;5054907;28;19925;-76
2021/01/09 02:47:40;;;;;;;;;;;12.00;45.30;;;;;;5050837;28;19931;-75
2021/01/09 02:50:10;;;;;;;;;;;11.90;45.00;;;;;;5050284;28;20019;-78
2021/01/09 02:52:38;;;;;;;;;;;11.90;44.80;;;;;;5050687;28;19939;-82
2021/01/09 02:55:05;;;;;;;;;;;11.90;45.00;;;;;;5049716;28;19971;-80
2021/01/09 02:57:31;;;;;;;;;;;11.90;45.00;;;;;;5051052;28;19931;-83
2021/01/09 02:59:57;;;;;;;;;;;11.90;45.10;;;;;;5051450;28;19935;-80
2021/01/09 03:02:24;;;;;;;;;;;11.80;44.60;;;;;;5058192;28;19929;-76
2021/01/09 03:04:50;;;;;;;;;;;11.60;44.20;;;;;;5063433;28;19951;-81
2021/01/09 03:07:16;;;;;;;;;;;11.60;45.90;;;;;;5059581;28;20316;-83
2021/01/09 03:09:43;;;;;;;;;;;11.70;45.70;;;;;;5063609;28;19932;-74
2021/01/09 03:12:09;;;;;;;;;;;11.80;45.40;;;;;;5066055;28;19936;-79
2021/01/09 03:14:35;;;;;;;;;;;11.90;45.10;;;;;;5067165;28;20194;-80
2021/01/09 03:17:02;;;;;;;;;;;11.90;44.00;;;;;;5055904;28;19991;-82
2021/01/09 03:19:29;;;;;;;;;;;11.80;44.90;;;;;;5050647;28;19924;-83
2021/01/09 03:21:55;;;;;;;;;;;11.90;45.30;;;;;;5042818;28;19925;-79
2021/01/09 03:24:21;;;;;;;;;;;11.90;45.10;;;;;;5030379;28;19932;-74
2021/01/09 03:26:47;;;;;;;;;;;12.00;44.90;;;;;;5030534;28;19936;-76
2021/01/09 03:29:14;;;;;;;;;;;12.00;45.00;;;;;;5048078;28;19931;-76
2021/01/09 03:31:40;;;;;;;;;;;12.00;44.70;;;;;;5050212;28;19925;-76
2021/01/09 03:34:07;;;;;;;;;;;12.10;44.70;;;;;;5050302;28;19970;-76
2021/01/09 03:36:33;;;;;;;;;;;12.00;44.60;;;;;;5050294;28;20179;-77
2021/01/09 03:38:59;;;;;;;;;;;12.00;44.70;;;;;;5050845;28;20423;-82
2021/01/09 03:41:26;;;;;;;;;;;12.00;44.50;;;;;;5050819;28;20353;-82
2021/01/09 03:43:52;;;;;;;;;;;12.00;44.20;;;;;;5050537;28;19932;-82
2021/01/09 03:46:18;;;;;;;;;;;12.00;44.70;;;;;;5050687;28;19951;-83
2021/01/09 03:48:45;;;;;;;;;;;12.00;44.70;;;;;;5050045;28;20490;-78
2021/01/09 03:51:11;;;;;;;;;;;12.00;44.70;;;;;;5065144;28;20301;-77
2021/01/09 03:53:38;;;;;;;;;;;12.00;44.60;;;;;;5048581;28;19928;-76
2021/01/09 03:56:04;;;;;;;;;;;12.10;44.60;;;;;;5049874;28;20003;-80
2021/01/09 03:58:31;;;;;;;;;;;12.00;44.40;;;;;;5050126;28;19925;-80
2021/01/09 04:00:57;;;;;;;;;;;12.00;44.50;;;;;;5049904;28;20285;-78
2021/01/09 04:03:23;;;;;;;;;;;12.00;44.40;;;;;;5052829;28;20296;-75
2021/01/09 04:05:50;;;;;;;;;;;12.10;44.60;;;;;;5054130;28;20345;-78
2021/01/09 04:08:16;;;;;;;;;;;12.10;44.50;;;;;;5045179;28;19925;-78
2021/01/09 04:10:42;;;;;;;;;;;12.00;44.40;;;;;;5034225;28;20332;-76
2021/01/09 04:13:09;;;;;;;;;;;12.00;44.50;;;;;;5034314;28;19932;-76
2021/01/09 04:15:36;;;;;;;;;;;12.00;44.40;;;;;;5034193;28;19925;-77
2021/01/09 04:18:02;;;;;;;;;;;12.00;44.60;;;;;;5052281;28;19958;-80
2021/01/09 04:20:30;;;;;;;;;;;12.00;44.60;;;;;;5054035;28;19924;-83
2021/01/09 04:22:56;;;;;;;;;;;12.00;44.70;;;;;;5053988;28;20339;-79
2021/01/09 04:25:23;;;;;;;;;;;12.00;44.70;;;;;;5054216;28;19924;-81
2021/01/09 04:27:49;;;;;;;;;;;12.00;44.30;;;;;;5053936;28;19929;-82
2021/01/09 04:30:15;;;;;;;;;;;11.90;45.00;;;;;;5053741;28;19925;-79
2021/01/09 04:32:42;;;;;;;;;;;11.80;44.90;;;;;;5053616;28;20385;-77
2021/01/09 04:35:08;;;;;;;;;;;11.90;44.70;;;;;;5054220;28;19933;-83
2021/01/09 04:37:38;;;;;;;;;;;11.80;42.80;;;;;;5054365;28;19955;-81
2021/01/09 04:40:06;;;;;;;;;;;11.60;44.60;;;;;;5053899;28;19925;-76
2021/01/09 04:42:32;;;;;;;;;;;11.60;45.50;;;;;;5053715;28;20286;-79
2021/01/09 04:44:59;;;;;;;;;;;11.70;45.40;;;;;;5053156;28;19925;-78
2021/01/09 04:47:25;;;;;;;;;;;11.80;45.10;;;;;;5053514;28;19932;-76
2021/01/09 04:49:51;;;;;;;;;;;11.80;43.30;;;;;;5053703;28;19925;-79
2021/01/09 04:52:18;;;;;;;;;;;11.30;46.00;;;;;;5053693;28;19948;-77
2021/01/09 04:54:45;;;;;;;;;;;11.20;45.50;;;;;;5053468;28;20534;-75
2021/01/09 04:57:12;;;;;;;;;;;11.40;46.40;;;;;;5053276;28;19929;-78
2021/01/09 04:59:38;;;;;;;;;;;11.60;45.70;;;;;;5053649;28;19925;-83
2021/01/09 05:02:05;;;;;;;;;;;11.60;44.00;;;;;;5052439;28;19925;-82
2021/01/09 05:04:31;;;;;;;;;;;11.60;45.30;;;;;;5052839;28;19925;-81
2021/01/09 05:06:58;;;;;;;;;;;11.60;44.60;;;;;;5053919;28;19925;-83
2021/01/09 05:09:25;;;;;;;;;;;11.20;44.60;;;;;;5053709;28;19976;-77
2021/01/09 05:11:55;;;;;;;;;;;11.30;46.10;;;;;;5053146;28;19925;-75
2021/01/09 05:14:21;;;;;;;;;;;11.50;45.90;;;;;;5052534;28;19931;-78
2021/01/09 05:16:48;;;;;;;;;;;11.70;45.10;;;;;;5052557;28;20412;-76
2021/01/09 05:19:15;;;;;;;;;;;11.50;45.40;;;;;;5053164;28;19931;-76
2021/01/09 05:21:42;;;;;;;;;;;11.60;45.30;;;;;;5052658;28;19925;-78
2021/01/09 05:24:09;;;;;;;;;;;11.10;45.60;;;;;;5052834;28;19928;-75
2021/01/09 05:26:37;;;;;;;;;;;10.80;45.80;;;;;;5052434;28;20393;-77
2021/01/09 05:29:04;;;;;;;;;;;10.20;45.10;;;;;;5052595;28;19971;-77
2021/01/09 05:31:35;;;;;;;;;;;9.70;48.40;;;;;;5052847;28;19925;-78
2021/01/09 05:34:05;;;;;;;;;;;9.40;48.70;;;;;;5052633;28;20472;-78
2021/01/09 05:36:32;;;;;;;;;;;8.90;49.20;;;;;;5053003;28;19925;-83
2021/01/09 05:38:59;;;;;;;;;;;8.40;50.70;;;;;;5053253;28;19925;-83
2021/01/09 05:41:26;;;;;;;;;;;8.20;54.30;;;;;;5053222;28;19931;-84
2021/01/09 05:43:58;;;;;;;;;;;8.10;53.90;;;;;;5053534;28;19925;-82
2021/01/09 05:46:25;;;;;;;;;;;7.50;53.50;;;;;;5053144;28;19924;-80
2021/01/09 05:48:52;;;;;;;;;;;7.10;55.30;;;;;;5051567;28;19924;-81
2021/01/09 05:51:18;;;;;;;;;;;7.10;55.20;;;;;;5052945;28;20348;-80
2021/01/09 05:53:45;;;;;;;;;;;6.50;57.20;;;;;;5053045;28;19925;-79
2021/01/09 05:56:12;;;;;;;;;;;6.00;59.30;;;;;;5053351;28;20340;-77
2021/01/09 05:58:41;;;;;;;;;;;5.70;60.50;;;;;;5054752;28;19929;-78
2021/01/09 06:01:11;;;;;;;;;;;5.30;61.20;;;;;;5059313;28;19931;-77
2021/01/09 06:03:45;;;;;;;;;;;5.30;63.90;;;;;;5062341;28;19930;-78
2021/01/09 06:06:22;;;;;;;;;;;5.10;63.20;;;;;;5066542;28;19931;-80
2021/01/09 06:09:00;;;;;;;;;;;4.90;65.00;;;;;;5075811;28;19943;-80
2021/01/09 06:11:29;;;;;;;;;;;5.00;63.70;;;;;;5076467;28;19924;-80
2021/01/09 06:14:00;;;;;;;;;;;5.10;63.90;;;;;;5075875;28;19913;-82
2021/01/09 06:16:30;;;;;;;;;;;5.10;64.20;;;;;;5072928;28;19959;-79
2021/01/09 06:18:59;;;;;;;;;;;4.90;64.20;;;;;;5074797;28;19925;-78
2021/01/09 06:21:34;;;;;;;;;;;4.70;65.80;;;;;;5071882;28;19928;-75
2021/01/09 06:24:04;;;;;;;;;;;4.40;67.00;;;;;;5061816;28;20027;-77
2021/01/09 06:26:33;;;;;;;;;;;4.70;67.80;;;;;;5062820;28;19935;-82
2021/01/09 06:29:19;;;;;;;;;;;4.50;67.50;;;;;;5071230;28;19947;-81
2021/01/09 06:31:53;;;;;;;;;;;4.20;69.20;;;;;;5072420;28;19925;-82
2021/01/09 06:34:25;;;;;;;;;;;3.80;71.60;;;;;;5072649;28;19925;-82
2021/01/09 06:36:59;;;;;;;;;;;4.00;71.90;;;;;;5071996;28;19924;-76
2021/01/09 06:39:26;;;;;;;;;;;4.20;69.60;;;;;;5066352;28;19932;-79
2021/01/09 06:41:58;;;;;;;;;;;4.10;70.20;;;;;;5067489;28;19925;-81
2021/01/09 06:44:31;;;;;;;;;;;4.10;70.50;;;;;;5070228;28;19925;-80
2021/01/09 06:47:01;;;;;;;;;;;4.10;70.50;;;;;;5069794;28;19932;-81
2021/01/09 06:49:29;;;;;;;;;;;4.20;71.60;;;;;;5069930;28;19925;-79
2021/01/09 06:52:02;;;;;;;;;;;4.20;70.60;;;;;;5071743;28;20332;-81
2021/01/09 06:54:43;;;;;;;;;;;4.10;71.20;;;;;;5072951;28;19924;-82
2021/01/09 06:57:23;;;;;;;;;;;4.10;71.00;;;;;;5074780;28;19992;-81
2021/01/09 06:59:54;;;;;;;;;;;4.00;71.90;;;;;;5073067;28;19925;-81
2021/01/09 07:02:24;;;;;;;;;;;3.80;73.00;;;;;;5072987;28;19912;-81
2021/01/09 07:05:00;;;;;;;;;;;3.90;73.90;;;;;;5072755;28;19925;-77
2021/01/09 07:07:41;;;;;;;;;;;3.80;73.80;;;;;;5070077;28;19925;-80
2021/01/09 07:10:21;;;;;;;;;;;3.90;74.50;;;;;;5035293;28;19924;-82
2021/01/09 07:12:53;;;;;;;;;;;3.80;74.70;;;;;;5069868;28;20102;-81
2021/01/09 07:15:25;;;;;;;;;;;3.90;74.30;;;;;;5067970;28;19932;-81
2021/01/09 07:17:56;;;;;;;;;;;4.00;73.20;;;;;;5065071;28;19925;-82
2021/01/09 07:20:32;;;;;;;;;;;3.70;74.40;;;;;;5066116;28;19963;-80
2021/01/09 07:23:03;;;;;;;;;;;3.80;75.30;;;;;;5069013;28;20001;-81
2021/01/09 07:25:31;;;;;;;;;;;4.00;73.80;;;;;;5066312;28;19928;-82
2021/01/09 07:28:01;;;;;;;;;;;3.90;74.30;;;;;;5067327;28;19985;-79
2021/01/09 07:30:32;;;;;;;;;;;4.20;73.70;;;;;;5067611;28;19936;-81
2021/01/09 07:33:01;;;;;;;;;;;4.40;73.00;;;;;;5067000;28;20054;-77
2021/01/09 07:35:45;;;;;;;;;;;4.60;71.80;;;;;;5061200;28;19925;-78
2021/01/09 07:38:12;;;;;;;;;;;4.30;73.10;;;;;;5061318;28;19936;-75
2021/01/09 07:40:44;;;;;;;;;;;4.50;72.60;;;;;;5060909;28;20410;-76
2021/01/09 07:43:29;;;;;;;;;;;4.60;72.20;;;;;;5060362;28;19925;-78
2021/01/09 07:45:57;;;;;;;;;;;4.50;71.10;;;;;;5067396;28;19948;-81
2021/01/09 07:48:24;;;;;;;;;;;4.60;71.50;;;;;;5066339;28;19929;-79
2021/01/09 07:50:50;;;;;;;;;;;4.60;71.00;;;;;;5067987;28;19931;-81
2021/01/09 07:53:25;;;;;;;;;;;3.20;69.80;;;;;;5068088;28;19964;-81
2021/01/09 07:55:52;;;;;;;;;;;4.60;71.00;;;;;;5067633;28;19924;-78
2021/01/09 07:58:38;;;;;;;;;;;4.60;71.70;;;;;;5066997;28;19951;-82
2021/01/09 08:01:04;;;;;;;;;;;5.00;69.70;;;;;;5069346;28;19931;-79
2021/01/09 08:03:32;;;;;;;;;;;5.70;70.40;;;;;;5061654;28;19960;-75
2021/01/09 08:05:59;;;;;;;;;;;6.70;65.20;;;;;;5058046;28;19924;-76
2021/01/09 08:08:26;;;;;;;;;;;7.30;60.50;;;;;;5059362;28;19935;-78
2021/01/09 08:10:52;;;;;;;;;;;6.80;59.90;;;;;;5054524;28;19925;-78
2021/01/09 08:13:21;;;;;;;;;;;6.70;61.80;;;;;;5052287;28;19929;-87
2021/01/09 08:15:48;;;;;;;;;;;6.40;62.80;;;;;;5051500;28;20089;-85
2021/01/09 08:18:15;;;;;;;;;;;6.10;64.30;;;;;;5042308;28;19925;-82
2021/01/09 08:20:41;;;;;;;;;;;5.90;64.30;;;;;;5045814;28;19925;-78
2021/01/09 08:23:08;;;;;;;;;;;5.40;65.90;;;;;;5049009;28;19933;-80
2021/01/09 08:25:36;;;;;;;;;;;5.20;68.20;;;;;;5045255;28;19991;-77
2021/01/09 08:28:03;;;;;;;;;;;5.30;67.60;;;;;;5050309;28;19931;-77
2021/01/09 08:30:31;;;;;;;;;;;5.30;68.90;;;;;;5041173;28;19925;-79
2021/01/09 08:33:07;;;;;;;;;;;5.70;66.10;;;;;;5042859;28;20465;-81
2021/01/09 08:35:37;;;;;;;;;;;5.80;66.70;;;;;;5035917;28;20412;-79
2021/01/09 08:38:04;;;;;;;;;;;6.40;64.90;;;;;;5040950;28;19932;-79
2021/01/09 08:40:33;;;;;;;;;;;6.50;63.00;;;;;;5037916;28;19929;-78
2021/01/09 08:43:01;;;;;;;;;;;6.50;63.00;;;;;;5043148;28;19925;-76
2021/01/09 08:45:34;;;;;;;;;;;6.10;63.50;;;;;;5042206;28;19929;-77
2021/01/09 08:48:01;;;;;;;;;;;5.90;64.60;;;;;;5040289;28;19984;-80
2021/01/09 08:50:29;;;;;;;;;;;6.00;65.10;;;;;;5045141;28;20312;-78
2021/01/09 08:52:58;;;;;;;;;;;6.20;66.00;;;;;;5049643;28;19925;-85
2021/01/09 08:55:25;;;;;;;;;;;6.30;63.50;;;;;;5046352;28;19925;-89
2021/01/09 08:57:52;;;;;;;;;;;6.20;65.00;;;;;;5052688;28;19925;-87
2021/01/09 09:00:19;;;;;;;;;;;6.80;64.10;;;;;;5045722;28;19925;-80
2021/01/09 09:02:47;;;;;;;;;;;6.90;63.70;;;;;;5045615;28;19924;-87
2021/01/09 09:05:14;;;;;;;;;;;7.70;61.30;;;;;;5046121;28;20007;-83
2021/01/09 09:07:41;;;;;;;;;;;8.60;56.90;;;;;;5043443;28;19929;-79
2021/01/09 09:10:08;;;;;;;;;;;8.70;55.20;;;;;;5044304;28;20302;-90
2021/01/09 09:12:35;;;;;;;;;;;9.10;54.80;;;;;;5044068;28;19931;-81
2021/01/09 09:15:05;;;;;;;;;;;9.20;53.40;;;;;;5042661;28;19936;-75
2021/01/09 09:17:32;;;;;;;;;;;9.30;52.80;;;;;;5041095;28;19929;-82
2021/01/09 09:19:59;;;;;;;;;;;8.70;53.70;;;;;;5043152;28;19967;-84
2021/01/09 09:22:29;;;;;;;;;;;8.80;55.90;;;;;;5045048;28;20388;-77
2021/01/09 09:24:56;;;;;;;;;;;9.60;54.50;;;;;;5045498;28;19980;-82
2021/01/09 09:27:28;;;;;;;;;;;8.60;54.70;;;;;;5044983;28;19925;-84
2021/01/09 09:30:05;;;;;;;;;;;8.50;55.50;;;;;;5047580;28;20058;-89
2021/01/09 09:32:31;;;;;;;;;;;7.70;56.40;;;;;;5043460;28;19972;-82
2021/01/09 09:35:17;;;;;;;;;;;7.10;59.10;;;;;;5040104;28;19925;-88
2021/01/09 09:37:44;;;;;;;;;;;6.60;59.90;;;;;;5043064;28;19925;-86
2021/01/09 09:40:25;;;;;;;;;;;6.30;62.30;;;;;;5044722;28;19929;-86
2021/01/09 09:42:52;;;;;;;;;;;6.10;64.20;;;;;;5043157;28;19925;-84
2021/01/09 09:45:24;;;;;;;;;;;5.60;64.70;;;;;;5046147;28;19932;-85
2021/01/09 09:48:02;;;;;;;;;;;5.60;65.90;;;;;;5052824;28;19925;-83
2021/01/09 09:50:34;;;;;;;;;;;5.90;65.00;;;;;;5047759;28;19925;-82
2021/01/09 09:53:06;;;;;;;;;;;5.60;65.20;;;;;;5043501;28;19978;-87
2021/01/09 09:55:36;;;;;;;;;;;5.50;65.40;;;;;;5054814;28;19987;-85
2021/01/09 09:58:03;;;;;;;;;;;5.30;67.50;;;;;;5049301;28;19964;-80
2021/01/09 10:00:29;;;;;;;;;;;5.60;67.60;;;;;;5051134;28;19925;-84
2021/01/09 10:02:57;;;;;;;;;;;5.90;65.60;;;;;;5044355;28;19931;-86
2021/01/09 10:05:24;;;;;;;;;;;6.10;62.70;;;;;;5045507;28;20336;-87
2021/01/09 10:08:06;;;;;;;;;;;6.20;63.80;;;;;;5050759;28;19925;-85
2021/01/09 10:10:33;;;;;;;;;;;6.80;63.10;;;;;;5046768;28;19925;-87
2021/01/09 10:12:59;;;;;;;;;;;7.40;58.40;;;;;;5033719;28;19925;-83
2021/01/09 10:15:26;;;;;;;;;;;7.60;59.50;;;;;;5036144;28;19924;-83
2021/01/09 10:17:55;;;;;;;;;;;7.60;57.90;;;;;;5045577;28;19935;-76
2021/01/09 10:20:22;;;;;;;;;;;7.90;57.90;;;;;;5040672;28;19929;-78
2021/01/09 10:22:48;;;;;;;;;;;8.40;56.90;;;;;;5040594;28;19925;-78
2021/01/09 10:25:15;;;;;;;;;;;8.70;56.70;;;;;;5037757;28;20088;-75
2021/01/09 10:27:42;;;;;;;;;;;8.10;57.60;;;;;;5042450;28;19925;-79
2021/01/09 10:30:09;;;;;;;;;;;8.40;56.50;;;;;;5040351;28;19930;-79
2021/01/09 10:32:35;;;;;;;;;;;8.30;56.00;;;;;;5037829;28;19933;-75
2021/01/09 10:35:02;;;;;;;;;;;8.20;59.00;;;;;;5040748;28;19928;-69
2021/01/09 10:37:28;;;;;;;;;;;8.10;59.90;;;;;;5039828;28;20013;-69
2021/01/09 10:39:54;;;;;;;;;;;7.80;56.80;;;;;;5049884;28;19932;-69
2021/01/09 10:42:21;;;;;;;;;;;8.00;57.70;;;;;;5048401;28;19932;-70
2021/01/09 10:44:49;;;;;;;;;;;8.20;57.60;;;;;;5045309;28;19971;-73
2021/01/09 10:47:15;;;;;;;;;;;8.50;56.60;;;;;;5048899;28;19929;-73
2021/01/09 10:49:42;;;;;;;;;;;8.80;55.20;;;;;;5050724;28;19932;-74
2021/01/09 10:52:08;;;;;;;;;;;7.90;55.50;;;;;;5039042;28;20027;-71
2021/01/09 10:54:34;;;;;;;;;;;8.20;57.90;;;;;;5040502;28;19931;-70
2021/01/09 10:57:01;;;;;;;;;;;8.40;56.70;;;;;;5040818;28;19929;-73
2021/01/09 10:59:27;;;;;;;;;;;8.50;55.40;;;;;;5039597;28;19932;-72
2021/01/09 11:01:57;;;;;;;;;;;8.50;55.30;;;;;;5040060;28;20277;-73
2021/01/09 11:04:24;;;;;;;;;;;8.80;54.90;;;;;;5038602;28;20031;-73
2021/01/09 11:06:56;;;;;;;;;;;8.70;54.50;;;;;;5039915;28;19929;-75
2021/01/09 11:09:22;;;;;;;;;;;9.20;53.30;;;;;;5043175;28;19925;-74
2021/01/09 11:11:53;;;;;;;;;;;9.50;52.30;;;;;;5050094;28;19998;-73
2021/01/09 11:14:20;;;;;;;;;;;9.30;53.80;;;;;;5050731;28;19925;-73
2021/01/09 11:16:46;;;;;;;;;;;9.90;52.50;;;;;;5045532;28;19931;-74
2021/01/09 11:19:13;;;;;;;;;;;10.10;52.00;;;;;;5050002;28;19952;-74
2021/01/09 11:21:39;;;;;;;;;;;10.40;50.70;;;;;;5050035;28;19947;-74
2021/01/09 11:24:06;;;;;;;;;;;10.60;49.60;;;;;;5051460;28;19924;-73
2021/01/09 11:26:32;;;;;;;;;;;10.40;50.10;;;;;;5059060;28;19925;-75
2021/01/09 11:28:59;;;;;;;;;;;9.40;50.10;;;;;;5052085;28;20401;-76
2021/01/09 11:31:26;;;;;;;;;;;10.30;50.90;;;;;;5070235;28;19940;-74
2021/01/09 11:33:52;;;;;;;;;;;10.10;50.90;;;;;;5070335;28;19928;-74
2021/01/09 11:36:19;;;;;;;;;;;10.00;50.90;;;;;;5066079;28;19932;-74
2021/01/09 11:38:46;;;;;;;;;;;9.70;52.20;;;;;;5050294;28;20325;-76
2021/01/09 11:41:12;;;;;;;;;;;10.10;51.60;;;;;;5048867;28;20108;-71
2021/01/09 11:43:39;;;;;;;;;;;9.80;50.80;;;;;;5048855;28;19929;-74
2021/01/09 11:46:07;;;;;;;;;;;10.00;53.10;;;;;;5050019;28;19932;-74
2021/01/09 11:48:34;;;;;;;;;;;9.90;50.70;;;;;;5042916;28;19929;-73
2021/01/09 11:51:02;;;;;;;;;;;10.20;49.50;;;;;;5036238;28;19929;-76
2021/01/09 11:53:28;;;;;;;;;;;10.20;50.00;;;;;;5037738;28;19932;-74
2021/01/09 11:55:55;;;;;;;;;;;10.10;50.00;;;;;;5041298;28;19932;-73
2021/01/09 11:58:21;;;;;;;;;;;10.20;49.50;;;;;;5038735;28;19994;-74
2021/01/09 12:00:48;;;;;;;;;;;10.10;48.80;;;;;;5039414;28;20393;-72
2021/01/09 12:03:15;;;;;;;;;;;9.50;50.00;;;;;;5037839;28;19929;-74
2021/01/09 12:05:41;;;;;;;;;;;9.70;51.80;;;;;;5030924;28;20407;-74
2021/01/09 12:08:08;;;;;;;;;;;9.60;51.60;;;;;;5029865;28;19929;-74
2021/01/09 12:10:34;;;;;;;;;;;9.50;50.80;;;;;;5028079;28;20060;-76
2021/01/09 12:13:02;;;;;;;;;;;9.40;49.80;;;;;;5057026;28;19928;-73
2021/01/09 12:15:29;;;;;;;;;;;9.30;51.00;;;;;;5064584;28;19932;-75
2021/01/09 12:17:55;;;;;;;;;;;9.00;51.50;;;;;;5047442;28;20293;-73
2021/01/09 12:20:22;;;;;;;;;;;8.60;52.20;;;;;;5049504;28;19936;-78
2021/01/09 12:22:48;;;;;;;;;;;8.50;53.20;;;;;;5047761;28;20389;-75
2021/01/09 12:25:15;;;;;;;;;;;8.40;53.20;;;;;;5050138;28;19924;-76
2021/01/09 12:27:41;;;;;;;;;;;8.10;54.60;;;;;;5049673;28;20099;-75
2021/01/09 12:30:08;;;;;;;;;;;8.10;55.50;;;;;;5052831;28;19929;-75
2021/01/09 12:32:37;;;;;;;;;;;7.80;55.20;;;;;;5052435;28;20401;-75
2021/01/09 12:35:06;;;;;;;;;;;7.60;56.50;;;;;;5052860;28;19951;-75
2021/01/09 12:37:33;;;;;;;;;;;7.50;57.10;;;;;;5052819;28;20458;-75
2021/01/09 12:40:00;;;;;;;;;;;7.70;57.10;;;;;;5053567;28;19928;-75
2021/01/09 12:42:28;;;;;;;;;;;7.50;57.30;;;;;;5053420;28;20187;-76
2021/01/09 12:44:55;;;;;;;;;;;7.60;57.60;;;;;;5054374;28;19947;-76
2021/01/09 12:47:21;;;;;;;;;;;7.50;57.40;;;;;;5042969;28;19932;-74
2021/01/09 12:49:48;;;;;;;;;;;7.70;58.30;;;;;;5043606;28;20015;-74
2021/01/09 12:52:14;;;;;;;;;;;7.80;56.30;;;;;;5038206;28;20113;-74
2021/01/09 12:54:41;;;;;;;;;;;7.80;55.30;;;;;;5048910;28;20020;-75
2021/01/09 12:57:07;;;;;;;;;;;7.50;56.50;;;;;;5052883;28;20023;-75
2021/01/09 12:59:33;;;;;;;;;;;7.40;54.50;;;;;;5060548;28;19928;-75
2021/01/09 13:02:00;;;;;;;;;;;7.60;55.80;;;;;;5053525;28;20404;-75
2021/01/09 13:04:26;;;;;;;;;;;7.70;58.00;;;;;;5043944;28;19925;-77
2021/01/09 13:06:54;;;;;;;;;;;8.10;58.40;;;;;;5040686;28;19948;-75
2021/01/09 13:09:22;;;;;;;;;;;8.00;56.00;;;;;;5041274;28;19925;-76
2021/01/09 13:11:55;;;;;;;;;;;8.20;58.60;;;;;;5042011;28;19978;-75
2021/01/09 13:14:22;;;;;;;;;;;8.40;54.40;;;;;;5044808;28;20328;-82
2021/01/09 13:16:49;;;;;;;;;;;8.40;55.30;;;;;;5048791;28;20355;-77
2021/01/09 13:19:16;;;;;;;;;;;8.30;54.70;;;;;;5045637;28;20060;-77
2021/01/09 13:21:44;;;;;;;;;;;8.20;53.60;;;;;;5041402;28;19929;-75
2021/01/09 13:24:13;;;;;;;;;;;8.60;54.10;;;;;;5040071;28;20444;-77
2021/01/09 13:26:41;;;;;;;;;;;8.80;53.80;;;;;;5039991;28;19925;-76
2021/01/09 13:29:08;;;;;;;;;;;8.70;53.80;;;;;;5041829;28;19931;-75
2021/01/09 13:31:34;;;;;;;;;;;8.70;52.90;;;;;;5044119;28;20415;-77
2021/01/09 13:34:01;;;;;;;;;;;8.80;52.30;;;;;;5039331;28;20385;-78
2021/01/09 13:36:29;;;;;;;;;;;8.80;52.20;;;;;;5038727;28;20095;-78
2021/01/09 13:38:56;;;;;;;;;;;8.60;52.50;;;;;;5042159;28;19931;-77
2021/01/09 13:41:23;;;;;;;;;;;8.40;52.90;;;;;;5040469;28;19925;-74
2021/01/09 13:43:49;;;;;;;;;;;8.10;53.70;;;;;;5050881;28;19940;-77
2021/01/09 13:46:24;;;;;;;;;;;8.30;53.40;;;;;;5050226;28;19925;-77
2021/01/09 13:48:51;;;;;;;;;;;8.50;54.00;;;;;;5039448;28;20289;-76
2021/01/09 13:51:19;;;;;;;;;;;8.10;51.80;;;;;;5046907;28;20368;-76
2021/01/09 13:53:45;;;;;;;;;;;8.20;54.00;;;;;;5050129;28;19924;-85
2021/01/09 13:56:11;;;;;;;;;;;8.30;53.50;;;;;;5051721;28;19924;-77
2021/01/09 13:58:38;;;;;;;;;;;8.50;55.30;;;;;;5049833;28;19929;-76
2021/01/09 14:01:05;;;;;;;;;;;8.90;52.60;;;;;;5040942;28;19948;-76
2021/01/09 14:03:33;;;;;;;;;;;9.10;51.90;;;;;;5040313;28;19928;-78
2021/01/09 14:06:00;;;;;;;;;;;9.30;50.90;;;;;;5042601;28;19925;-76
2021/01/09 14:08:27;;;;;;;;;;;9.50;50.50;;;;;;5041886;28;20013;-80
2021/01/09 14:10:53;;;;;;;;;;;8.80;50.90;;;;;;5040224;28;19968;-80
2021/01/09 14:13:21;;;;;;;;;;;8.50;51.80;;;;;;5043475;28;19984;-77
2021/01/09 14:15:48;;;;;;;;;;;8.60;53.50;;;;;;5045450;28;20389;-76
2021/01/09 14:18:14;;;;;;;;;;;8.80;53.50;;;;;;5039782;28;19932;-78
2021/01/09 14:20:41;;;;;;;;;;;9.10;52.90;;;;;;5040213;28;19932;-75
2021/01/09 14:23:07;;;;;;;;;;;9.40;50.20;;;;;;5039813;28;19925;-73
2021/01/09 14:25:35;;;;;;;;;;;9.00;51.50;;;;;;5037250;28;19973;-76
2021/01/09 14:28:01;;;;;;;;;;;8.80;52.00;;;;;;5046053;28;19925;-79